sensor_id;sensor_type;location;lat;lon;timestamp;temperature;humidity
39525;DHT22;25203;50.754;6.978;2022-08-19T00:01:15;18.40;99.90
39525;DHT22;25203;50.754;6.978;2022-08-19T00:03:16;18.30;99.90
39525;DHT22;25203;50.754;6.978;2022-08-19T00:05:18;18.20;99.90
39525;DHT22;25203;50.754;6.978;2022-08-19T00:07:19;18.20;99.90
39525;DHT22;25203;50.754;6.978;2022-08-19T00:09:22;18.20;99.90
39525;DHT22;25203;50.754;6.978;2022-08-19T00:11:23;18.20;99.90
39525;DHT22;25203;50.754;6.978;2022-08-19T00:13:24;18.20;99.90
39525;DHT22;25203;50.754;6.978;2022-08-19T00:15:25;18.10;99.90
39525;DHT22;25203;50.754;6.978;2022-08-19T00:17:25;18.10;99.90
39525;DHT22;25203;50.754;6.978;2022-08-19T00:19:26;18.10;99.90
39525;DHT22;25203;50.754;6.978;2022-08-19T00:21:27;18.10;99.90
39525;DHT22;25203;50.754;6.978;2022-08-19T00:23:27;18.10;99.90
39525;DHT22;25203;50.754;6.978;2022-08-19T00:25:28;18.10;99.90
39525;DHT22;25203;50.754;6.978;2022-08-19T00:27:29;18.10;99.90
39525;DHT22;25203;50.754;6.978;2022-08-19T00:29:29;18.10;99.90
39525;DHT22;25203;50.754;6.978;2022-08-19T00:31:31;18.00;99.90
39525;DHT22;25203;50.754;6.978;2022-08-19T00:33:32;18.00;99.90
39525;DHT22;25203;50.754;6.978;2022-08-19T00:35:33;18.00;99.90
39525;DHT22;25203;50.754;6.978;2022-08-19T00:37:34;17.90;99.90
39525;DHT22;25203;50.754;6.978;2022-08-19T00:39:35;17.90;99.90
39525;DHT22;25203;50.754;6.978;2022-08-19T00:41:36;17.80;99.90
39525;DHT22;25203;50.754;6.978;2022-08-19T00:43:37;17.80;99.90
39525;DHT22;25203;50.754;6.978;2022-08-19T00:45:39;17.80;99.90
39525;DHT22;25203;50.754;6.978;2022-08-19T00:47:43;17.80;99.90
39525;DHT22;25203;50.754;6.978;2022-08-19T00:49:50;17.70;99.90
39525;DHT22;25203;50.754;6.978;2022-08-19T00:51:54;17.80;99.90
39525;DHT22;25203;50.754;6.978;2022-08-19T00:53:57;17.80;99.90
39525;DHT22;25203;50.754;6.978;2022-08-19T00:55:59;17.80;99.90
39525;DHT22;25203;50.754;6.978;2022-08-19T00:58:10;17.70;99.90
39525;DHT22;25203;50.754;6.978;2022-08-19T01:00:16;17.70;99.90
39525;DHT22;25203;50.754;6.978;2022-08-19T01:02:17;17.60;99.90
39525;DHT22;25203;50.754;6.978;2022-08-19T01:04:18;17.60;99.90
39525;DHT22;25203;50.754;6.978;2022-08-19T01:06:19;17.50;99.90
39525;DHT22;25203;50.754;6.978;2022-08-19T01:08:20;17.50;99.90
39525;DHT22;25203;50.754;6.978;2022-08-19T01:10:25;17.50;99.90
39525;DHT22;25203;50.754;6.978;2022-08-19T01:12:26;17.40;99.90
39525;DHT22;25203;50.754;6.978;2022-08-19T01:14:26;17.50;99.90
39525;DHT22;25203;50.754;6.978;2022-08-19T01:16:28;17.50;99.90
39525;DHT22;25203;50.754;6.978;2022-08-19T01:18:31;17.50;99.90
39525;DHT22;25203;50.754;6.978;2022-08-19T01:20:32;17.50;99.90
39525;DHT22;25203;50.754;6.978;2022-08-19T01:22:39;17.40;99.90
39525;DHT22;25203;50.754;6.978;2022-08-19T01:24:42;17.40;99.90
39525;DHT22;25203;50.754;6.978;2022-08-19T01:26:44;17.50;99.90
39525;DHT22;25203;50.754;6.978;2022-08-19T01:28:46;17.50;99.90
39525;DHT22;25203;50.754;6.978;2022-08-19T01:30:48;17.50;99.90
39525;DHT22;25203;50.754;6.978;2022-08-19T01:32:50;17.50;99.90
39525;DHT22;25203;50.754;6.978;2022-08-19T01:34:51;17.50;99.90
39525;DHT22;25203;50.754;6.978;2022-08-19T01:36:51;17.50;99.90
39525;DHT22;25203;50.754;6.978;2022-08-19T01:38:53;17.50;99.90
39525;DHT22;25203;50.754;6.978;2022-08-19T01:40:54;17.50;99.90
39525;DHT22;25203;50.754;6.978;2022-08-19T01:42:54;17.50;99.90
39525;DHT22;25203;50.754;6.978;2022-08-19T01:44:55;17.50;99.90
39525;DHT22;25203;50.754;6.978;2022-08-19T01:46:56;17.50;99.90
39525;DHT22;25203;50.754;6.978;2022-08-19T01:48:57;17.50;99.90
39525;DHT22;25203;50.754;6.978;2022-08-19T01:50:58;17.40;99.90
39525;DHT22;25203;50.754;6.978;2022-08-19T01:53:00;17.40;99.90
39525;DHT22;25203;50.754;6.978;2022-08-19T01:55:00;17.40;99.90
39525;DHT22;25203;50.754;6.978;2022-08-19T01:57:07;17.40;99.90
39525;DHT22;25203;50.754;6.978;2022-08-19T01:59:12;17.30;99.90
39525;DHT22;25203;50.754;6.978;2022-08-19T02:01:14;17.30;99.90
39525;DHT22;25203;50.754;6.978;2022-08-19T02:03:15;17.40;99.90
39525;DHT22;25203;50.754;6.978;2022-08-19T02:05:16;17.30;99.90
39525;DHT22;25203;50.754;6.978;2022-08-19T02:07:20;17.30;99.90
39525;DHT22;25203;50.754;6.978;2022-08-19T02:09:21;17.30;99.90
39525;DHT22;25203;50.754;6.978;2022-08-19T02:11:28;17.30;99.90
39525;DHT22;25203;50.754;6.978;2022-08-19T02:13:32;17.30;99.90
39525;DHT22;25203;50.754;6.978;2022-08-19T02:15:33;17.20;99.90
39525;DHT22;25203;50.754;6.978;2022-08-19T02:17:34;17.10;99.90
39525;DHT22;25203;50.754;6.978;2022-08-19T02:19:34;17.10;99.90
39525;DHT22;25203;50.754;6.978;2022-08-19T02:21:35;17.10;99.90
39525;DHT22;25203;50.754;6.978;2022-08-19T02:23:35;17.10;99.90
39525;DHT22;25203;50.754;6.978;2022-08-19T02:25:36;17.00;99.90
39525;DHT22;25203;50.754;6.978;2022-08-19T02:27:38;17.00;99.90
39525;DHT22;25203;50.754;6.978;2022-08-19T02:29:39;16.90;99.90
39525;DHT22;25203;50.754;6.978;2022-08-19T02:31:39;16.90;99.90
39525;DHT22;25203;50.754;6.978;2022-08-19T02:33:40;16.80;99.90
39525;DHT22;25203;50.754;6.978;2022-08-19T02:35:43;16.80;99.90
39525;DHT22;25203;50.754;6.978;2022-08-19T02:37:44;16.80;99.90
39525;DHT22;25203;50.754;6.978;2022-08-19T02:40:15;16.70;99.90
39525;DHT22;25203;50.754;6.978;2022-08-19T02:42:18;16.70;99.90
39525;DHT22;25203;50.754;6.978;2022-08-19T02:44:19;16.70;99.90
39525;DHT22;25203;50.754;6.978;2022-08-19T02:46:22;16.70;99.90
39525;DHT22;25203;50.754;6.978;2022-08-19T02:48:25;16.70;99.90
39525;DHT22;25203;50.754;6.978;2022-08-19T02:50:26;16.60;99.90
39525;DHT22;25203;50.754;6.978;2022-08-19T02:52:26;16.60;99.90
39525;DHT22;25203;50.754;6.978;2022-08-19T02:54:28;16.60;99.90
39525;DHT22;25203;50.754;6.978;2022-08-19T02:56:29;16.60;99.90
39525;DHT22;25203;50.754;6.978;2022-08-19T02:58:31;16.60;99.90
39525;DHT22;25203;50.754;6.978;2022-08-19T03:00:31;16.60;99.90
39525;DHT22;25203;50.754;6.978;2022-08-19T03:02:32;16.60;99.90
39525;DHT22;25203;50.754;6.978;2022-08-19T03:04:33;16.60;99.90
39525;DHT22;25203;50.754;6.978;2022-08-19T03:06:40;16.60;99.90
39525;DHT22;25203;50.754;6.978;2022-08-19T03:08:44;16.60;99.90
39525;DHT22;25203;50.754;6.978;2022-08-19T03:10:47;16.60;99.90
39525;DHT22;25203;50.754;6.978;2022-08-19T03:12:47;16.60;99.90
39525;DHT22;25203;50.754;6.978;2022-08-19T03:14:48;16.60;99.90
39525;DHT22;25203;50.754;6.978;2022-08-19T03:16:50;16.60;99.90
39525;DHT22;25203;50.754;6.978;2022-08-19T03:18:53;16.70;99.90
39525;DHT22;25203;50.754;6.978;2022-08-19T03:20:54;16.70;99.90
39525;DHT22;25203;50.754;6.978;2022-08-19T03:22:54;16.70;99.90
39525;DHT22;25203;50.754;6.978;2022-08-19T03:24:55;16.70;99.90
39525;DHT22;25203;50.754;6.978;2022-08-19T03:26:57;16.60;99.90
39525;DHT22;25203;50.754;6.978;2022-08-19T03:29:02;16.60;99.90
39525;DHT22;25203;50.754;6.978;2022-08-19T03:31:06;16.50;99.90
39525;DHT22;25203;50.754;6.978;2022-08-19T03:33:09;16.50;99.90
39525;DHT22;25203;50.754;6.978;2022-08-19T03:35:10;16.50;99.90
39525;DHT22;25203;50.754;6.978;2022-08-19T03:37:11;16.50;99.90
39525;DHT22;25203;50.754;6.978;2022-08-19T03:39:13;16.40;99.90
39525;DHT22;25203;50.754;6.978;2022-08-19T03:41:25;16.40;99.90
39525;DHT22;25203;50.754;6.978;2022-08-19T03:43:26;16.30;99.90
39525;DHT22;25203;50.754;6.978;2022-08-19T03:45:27;16.30;99.90
39525;DHT22;25203;50.754;6.978;2022-08-19T03:47:27;16.20;99.90
39525;DHT22;25203;50.754;6.978;2022-08-19T03:49:30;16.20;99.90
39525;DHT22;25203;50.754;6.978;2022-08-19T03:51:38;16.10;99.90
39525;DHT22;25203;50.754;6.978;2022-08-19T03:53:38;16.10;99.90
39525;DHT22;25203;50.754;6.978;2022-08-19T03:55:40;16.10;99.90
39525;DHT22;25203;50.754;6.978;2022-08-19T03:57:41;16.10;99.90
39525;DHT22;25203;50.754;6.978;2022-08-19T03:59:42;16.10;99.90
39525;DHT22;25203;50.754;6.978;2022-08-19T04:01:43;16.10;99.90
39525;DHT22;25203;50.754;6.978;2022-08-19T04:03:44;16.20;99.90
39525;DHT22;25203;50.754;6.978;2022-08-19T04:05:46;16.20;99.90
39525;DHT22;25203;50.754;6.978;2022-08-19T04:07:47;16.20;99.90
39525;DHT22;25203;50.754;6.978;2022-08-19T04:09:48;16.20;99.90
39525;DHT22;25203;50.754;6.978;2022-08-19T04:11:51;16.20;99.90
39525;DHT22;25203;50.754;6.978;2022-08-19T04:13:56;16.20;99.90
39525;DHT22;25203;50.754;6.978;2022-08-19T04:15:57;16.20;99.90
39525;DHT22;25203;50.754;6.978;2022-08-19T04:17:57;16.20;99.90
39525;DHT22;25203;50.754;6.978;2022-08-19T04:19:58;16.10;99.90
39525;DHT22;25203;50.754;6.978;2022-08-19T04:21:59;16.10;99.90
39525;DHT22;25203;50.754;6.978;2022-08-19T04:24:01;16.10;99.90
39525;DHT22;25203;50.754;6.978;2022-08-19T04:26:02;16.20;99.90
39525;DHT22;25203;50.754;6.978;2022-08-19T04:28:03;16.20;99.90
39525;DHT22;25203;50.754;6.978;2022-08-19T04:30:04;16.30;99.90
39525;DHT22;25203;50.754;6.978;2022-08-19T04:32:08;16.30;99.90
39525;DHT22;25203;50.754;6.978;2022-08-19T04:34:12;16.30;99.90
39525;DHT22;25203;50.754;6.978;2022-08-19T04:36:21;16.30;99.90
39525;DHT22;25203;50.754;6.978;2022-08-19T04:38:22;16.30;99.90
39525;DHT22;25203;50.754;6.978;2022-08-19T04:40:23;16.40;99.90
39525;DHT22;25203;50.754;6.978;2022-08-19T04:42:42;16.40;99.90
39525;DHT22;25203;50.754;6.978;2022-08-19T04:44:45;16.40;99.90
39525;DHT22;25203;50.754;6.978;2022-08-19T04:46:48;16.40;99.90
39525;DHT22;25203;50.754;6.978;2022-08-19T04:48:51;16.40;99.90
39525;DHT22;25203;50.754;6.978;2022-08-19T04:50:55;16.50;99.90
39525;DHT22;25203;50.754;6.978;2022-08-19T04:52:59;16.50;99.90
39525;DHT22;25203;50.754;6.978;2022-08-19T04:55:00;16.60;99.90
39525;DHT22;25203;50.754;6.978;2022-08-19T04:57:00;16.60;99.90
39525;DHT22;25203;50.754;6.978;2022-08-19T04:59:01;16.60;99.90
39525;DHT22;25203;50.754;6.978;2022-08-19T05:01:05;16.60;99.90
39525;DHT22;25203;50.754;6.978;2022-08-19T05:03:05;16.70;99.90
39525;DHT22;25203;50.754;6.978;2022-08-19T05:05:07;16.70;99.90
39525;DHT22;25203;50.754;6.978;2022-08-19T05:07:08;16.70;99.90
39525;DHT22;25203;50.754;6.978;2022-08-19T05:09:10;16.80;99.90
39525;DHT22;25203;50.754;6.978;2022-08-19T05:11:15;16.80;99.90
39525;DHT22;25203;50.754;6.978;2022-08-19T05:13:18;16.80;99.90
39525;DHT22;25203;50.754;6.978;2022-08-19T05:15:19;16.90;99.90
39525;DHT22;25203;50.754;6.978;2022-08-19T05:17:19;16.90;99.90
39525;DHT22;25203;50.754;6.978;2022-08-19T05:19:20;16.90;99.90
39525;DHT22;25203;50.754;6.978;2022-08-19T05:21:41;16.90;99.90
39525;DHT22;25203;50.754;6.978;2022-08-19T05:24:00;16.90;99.90
39525;DHT22;25203;50.754;6.978;2022-08-19T05:26:02;16.90;99.90
39525;DHT22;25203;50.754;6.978;2022-08-19T05:28:03;16.90;99.90
39525;DHT22;25203;50.754;6.978;2022-08-19T05:30:04;16.90;99.90
39525;DHT22;25203;50.754;6.978;2022-08-19T05:32:06;17.00;99.90
39525;DHT22;25203;50.754;6.978;2022-08-19T05:34:11;17.10;99.90
39525;DHT22;25203;50.754;6.978;2022-08-19T05:36:11;17.20;99.90
39525;DHT22;25203;50.754;6.978;2022-08-19T05:38:13;17.20;99.90
39525;DHT22;25203;50.754;6.978;2022-08-19T05:40:13;17.30;99.90
39525;DHT22;25203;50.754;6.978;2022-08-19T05:42:14;17.40;99.90
39525;DHT22;25203;50.754;6.978;2022-08-19T05:44:15;17.50;99.90
39525;DHT22;25203;50.754;6.978;2022-08-19T05:46:18;17.60;99.90
39525;DHT22;25203;50.754;6.978;2022-08-19T05:48:19;17.70;99.90
39525;DHT22;25203;50.754;6.978;2022-08-19T05:50:21;17.70;99.90
39525;DHT22;25203;50.754;6.978;2022-08-19T05:52:21;17.80;99.90
39525;DHT22;25203;50.754;6.978;2022-08-19T05:54:23;17.80;99.90
39525;DHT22;25203;50.754;6.978;2022-08-19T05:56:24;17.80;99.90
39525;DHT22;25203;50.754;6.978;2022-08-19T05:58:25;17.80;99.90
39525;DHT22;25203;50.754;6.978;2022-08-19T06:00:26;17.90;99.90
39525;DHT22;25203;50.754;6.978;2022-08-19T06:02:28;17.90;99.90
39525;DHT22;25203;50.754;6.978;2022-08-19T06:04:28;17.90;99.90
39525;DHT22;25203;50.754;6.978;2022-08-19T06:06:29;17.90;99.90
39525;DHT22;25203;50.754;6.978;2022-08-19T06:08:30;18.00;99.90
39525;DHT22;25203;50.754;6.978;2022-08-19T06:10:31;18.00;99.90
39525;DHT22;25203;50.754;6.978;2022-08-19T06:12:32;18.10;99.90
39525;DHT22;25203;50.754;6.978;2022-08-19T06:14:35;18.10;99.90
39525;DHT22;25203;50.754;6.978;2022-08-19T06:16:38;18.20;99.90
39525;DHT22;25203;50.754;6.978;2022-08-19T06:18:39;18.20;99.90
39525;DHT22;25203;50.754;6.978;2022-08-19T06:20:41;18.30;99.90
39525;DHT22;25203;50.754;6.978;2022-08-19T06:22:44;18.40;99.90
39525;DHT22;25203;50.754;6.978;2022-08-19T06:24:46;18.40;99.90
39525;DHT22;25203;50.754;6.978;2022-08-19T06:26:47;18.50;99.90
39525;DHT22;25203;50.754;6.978;2022-08-19T06:28:48;18.60;99.90
39525;DHT22;25203;50.754;6.978;2022-08-19T06:30:49;18.70;99.90
39525;DHT22;25203;50.754;6.978;2022-08-19T06:32:51;18.70;99.90
39525;DHT22;25203;50.754;6.978;2022-08-19T06:34:52;18.80;99.90
39525;DHT22;25203;50.754;6.978;2022-08-19T06:36:53;18.90;99.90
39525;DHT22;25203;50.754;6.978;2022-08-19T06:38:54;19.00;99.90
39525;DHT22;25203;50.754;6.978;2022-08-19T06:41:04;19.20;99.90
39525;DHT22;25203;50.754;6.978;2022-08-19T06:43:05;19.30;99.90
39525;DHT22;25203;50.754;6.978;2022-08-19T06:45:06;19.50;99.90
39525;DHT22;25203;50.754;6.978;2022-08-19T06:47:12;19.90;99.90
39525;DHT22;25203;50.754;6.978;2022-08-19T06:49:13;20.40;99.90
39525;DHT22;25203;50.754;6.978;2022-08-19T06:51:16;20.50;99.90
39525;DHT22;25203;50.754;6.978;2022-08-19T06:53:18;20.40;99.90
39525;DHT22;25203;50.754;6.978;2022-08-19T06:55:19;20.60;99.90
39525;DHT22;25203;50.754;6.978;2022-08-19T06:57:20;20.60;99.90
39525;DHT22;25203;50.754;6.978;2022-08-19T06:59:23;20.80;99.90
39525;DHT22;25203;50.754;6.978;2022-08-19T07:01:27;20.90;99.90
39525;DHT22;25203;50.754;6.978;2022-08-19T07:03:33;21.00;99.90
39525;DHT22;25203;50.754;6.978;2022-08-19T07:05:41;20.90;99.90
39525;DHT22;25203;50.754;6.978;2022-08-19T07:07:42;20.80;99.90
39525;DHT22;25203;50.754;6.978;2022-08-19T07:09:44;20.70;99.90
39525;DHT22;25203;50.754;6.978;2022-08-19T07:11:49;20.80;99.90
39525;DHT22;25203;50.754;6.978;2022-08-19T07:13:50;20.80;99.90
39525;DHT22;25203;50.754;6.978;2022-08-19T07:15:51;20.80;99.90
39525;DHT22;25203;50.754;6.978;2022-08-19T07:17:52;20.80;99.90
39525;DHT22;25203;50.754;6.978;2022-08-19T07:19:53;20.90;99.90
39525;DHT22;25203;50.754;6.978;2022-08-19T07:21:54;20.90;99.90
39525;DHT22;25203;50.754;6.978;2022-08-19T07:23:56;20.90;99.90
39525;DHT22;25203;50.754;6.978;2022-08-19T07:26:17;21.00;99.90
39525;DHT22;25203;50.754;6.978;2022-08-19T07:28:19;21.20;99.90
39525;DHT22;25203;50.754;6.978;2022-08-19T07:30:20;21.30;99.90
39525;DHT22;25203;50.754;6.978;2022-08-19T07:32:22;21.50;99.90
39525;DHT22;25203;50.754;6.978;2022-08-19T07:34:24;21.90;99.90
39525;DHT22;25203;50.754;6.978;2022-08-19T07:36:28;22.10;99.90
39525;DHT22;25203;50.754;6.978;2022-08-19T07:38:33;22.40;99.90
39525;DHT22;25203;50.754;6.978;2022-08-19T07:40:34;22.50;99.90
39525;DHT22;25203;50.754;6.978;2022-08-19T07:42:35;22.80;99.90
39525;DHT22;25203;50.754;6.978;2022-08-19T07:44:36;23.00;99.90
39525;DHT22;25203;50.754;6.978;2022-08-19T07:46:40;23.40;99.90
39525;DHT22;25203;50.754;6.978;2022-08-19T07:48:43;23.70;99.90
39525;DHT22;25203;50.754;6.978;2022-08-19T07:50:46;24.00;99.90
39525;DHT22;25203;50.754;6.978;2022-08-19T07:52:49;24.10;99.90
39525;DHT22;25203;50.754;6.978;2022-08-19T07:54:49;23.80;99.90
39525;DHT22;25203;50.754;6.978;2022-08-19T07:56:50;23.90;99.90
39525;DHT22;25203;50.754;6.978;2022-08-19T07:58:52;24.10;99.90
39525;DHT22;25203;50.754;6.978;2022-08-19T08:00:53;24.60;99.90
39525;DHT22;25203;50.754;6.978;2022-08-19T08:02:54;25.40;99.90
39525;DHT22;25203;50.754;6.978;2022-08-19T08:04:54;26.10;99.50
39525;DHT22;25203;50.754;6.978;2022-08-19T08:07:14;26.70;97.90
39525;DHT22;25203;50.754;6.978;2022-08-19T08:09:37;27.50;94.30
39525;DHT22;25203;50.754;6.978;2022-08-19T08:11:40;28.00;92.50
39525;DHT22;25203;50.754;6.978;2022-08-19T08:13:41;28.50;91.20
39525;DHT22;25203;50.754;6.978;2022-08-19T08:15:42;28.40;90.00
39525;DHT22;25203;50.754;6.978;2022-08-19T08:17:45;28.90;90.10
39525;DHT22;25203;50.754;6.978;2022-08-19T08:19:46;29.00;85.50
39525;DHT22;25203;50.754;6.978;2022-08-19T08:21:49;28.60;85.90
39525;DHT22;25203;50.754;6.978;2022-08-19T08:23:50;28.00;88.10
39525;DHT22;25203;50.754;6.978;2022-08-19T08:25:54;27.80;89.80
39525;DHT22;25203;50.754;6.978;2022-08-19T08:27:55;28.10;90.30
39525;DHT22;25203;50.754;6.978;2022-08-19T08:29:57;28.30;87.90
39525;DHT22;25203;50.754;6.978;2022-08-19T08:31:58;28.60;88.80
39525;DHT22;25203;50.754;6.978;2022-08-19T08:33:59;29.30;87.40
39525;DHT22;25203;50.754;6.978;2022-08-19T08:36:00;29.90;84.60
39525;DHT22;25203;50.754;6.978;2022-08-19T08:38:01;29.80;82.10
39525;DHT22;25203;50.754;6.978;2022-08-19T08:40:37;30.30;81.80
39525;DHT22;25203;50.754;6.978;2022-08-19T08:42:36;30.80;79.80
39525;DHT22;25203;50.754;6.978;2022-08-19T08:47:04;31.50;74.50
39525;DHT22;25203;50.754;6.978;2022-08-19T08:51:37;32.50;73.10
39525;DHT22;25203;50.754;6.978;2022-08-19T08:53:40;33.00;71.00
39525;DHT22;25203;50.754;6.978;2022-08-19T08:55:42;33.20;70.20
39525;DHT22;25203;50.754;6.978;2022-08-19T08:57:52;33.80;69.70
39525;DHT22;25203;50.754;6.978;2022-08-19T08:59:57;34.20;67.40
39525;DHT22;25203;50.754;6.978;2022-08-19T09:02:00;33.80;66.80
39525;DHT22;25203;50.754;6.978;2022-08-19T09:04:04;33.40;66.60
39525;DHT22;25203;50.754;6.978;2022-08-19T09:06:19;32.60;66.70
39525;DHT22;25203;50.754;6.978;2022-08-19T09:10:50;32.90;67.20
39525;DHT22;25203;50.754;6.978;2022-08-19T09:15:09;33.60;66.70
39525;DHT22;25203;50.754;6.978;2022-08-19T09:17:12;34.00;65.10
39525;DHT22;25203;50.754;6.978;2022-08-19T09:19:12;34.10;65.30
39525;DHT22;25203;50.754;6.978;2022-08-19T09:21:14;34.10;63.50
39525;DHT22;25203;50.754;6.978;2022-08-19T09:23:15;33.80;64.10
39525;DHT22;25203;50.754;6.978;2022-08-19T09:25:18;33.40;63.80
39525;DHT22;25203;50.754;6.978;2022-08-19T09:27:22;33.20;63.40
39525;DHT22;25203;50.754;6.978;2022-08-19T09:29:24;33.30;64.50
39525;DHT22;25203;50.754;6.978;2022-08-19T09:31:29;34.10;64.40
39525;DHT22;25203;50.754;6.978;2022-08-19T09:33:30;35.10;63.00
39525;DHT22;25203;50.754;6.978;2022-08-19T09:35:32;36.00;61.20
39525;DHT22;25203;50.754;6.978;2022-08-19T09:37:32;36.60;59.60
39525;DHT22;25203;50.754;6.978;2022-08-19T09:39:33;37.20;58.30
39525;DHT22;25203;50.754;6.978;2022-08-19T09:41:33;37.40;57.50
39525;DHT22;25203;50.754;6.978;2022-08-19T09:43:34;37.50;56.80
39525;DHT22;25203;50.754;6.978;2022-08-19T09:45:36;37.80;56.30
39525;DHT22;25203;50.754;6.978;2022-08-19T09:47:37;37.80;55.00
39525;DHT22;25203;50.754;6.978;2022-08-19T09:49:38;37.70;55.30
39525;DHT22;25203;50.754;6.978;2022-08-19T09:51:39;37.90;55.00
39525;DHT22;25203;50.754;6.978;2022-08-19T09:53:40;37.90;54.60
39525;DHT22;25203;50.754;6.978;2022-08-19T09:55:42;37.90;53.80
39525;DHT22;25203;50.754;6.978;2022-08-19T09:57:43;38.10;53.60
39525;DHT22;25203;50.754;6.978;2022-08-19T09:59:44;38.40;53.50
39525;DHT22;25203;50.754;6.978;2022-08-19T10:01:45;38.90;53.10
39525;DHT22;25203;50.754;6.978;2022-08-19T10:03:51;39.20;52.80
39525;DHT22;25203;50.754;6.978;2022-08-19T10:05:54;39.80;52.60
39525;DHT22;25203;50.754;6.978;2022-08-19T10:07:55;40.00;51.60
39525;DHT22;25203;50.754;6.978;2022-08-19T10:09:56;39.90;51.60
39525;DHT22;25203;50.754;6.978;2022-08-19T10:11:56;40.10;51.80
39525;DHT22;25203;50.754;6.978;2022-08-19T10:13:57;40.60;51.70
39525;DHT22;25203;50.754;6.978;2022-08-19T10:16:09;40.90;50.60
39525;DHT22;25203;50.754;6.978;2022-08-19T10:18:10;41.20;50.70
39525;DHT22;25203;50.754;6.978;2022-08-19T10:20:11;41.40;49.80
39525;DHT22;25203;50.754;6.978;2022-08-19T10:22:12;40.90;49.40
39525;DHT22;25203;50.754;6.978;2022-08-19T10:24:14;39.00;49.50
39525;DHT22;25203;50.754;6.978;2022-08-19T10:26:18;37.10;51.20
39525;DHT22;25203;50.754;6.978;2022-08-19T10:28:19;35.20;52.70
39525;DHT22;25203;50.754;6.978;2022-08-19T10:30:20;33.80;54.10
39525;DHT22;25203;50.754;6.978;2022-08-19T10:32:20;32.90;55.40
39525;DHT22;25203;50.754;6.978;2022-08-19T10:34:22;32.10;56.30
39525;DHT22;25203;50.754;6.978;2022-08-19T10:36:28;31.90;57.30
39525;DHT22;25203;50.754;6.978;2022-08-19T10:38:28;32.20;57.40
39525;DHT22;25203;50.754;6.978;2022-08-19T10:40:29;32.90;56.10
39525;DHT22;25203;50.754;6.978;2022-08-19T10:42:31;33.80;55.90
39525;DHT22;25203;50.754;6.978;2022-08-19T10:44:32;34.30;55.00
39525;DHT22;25203;50.754;6.978;2022-08-19T10:46:38;34.60;54.30
39525;DHT22;25203;50.754;6.978;2022-08-19T10:48:42;35.60;53.80
39525;DHT22;25203;50.754;6.978;2022-08-19T10:50:43;36.30;53.20
39525;DHT22;25203;50.754;6.978;2022-08-19T10:53:07;36.30;52.50
39525;DHT22;25203;50.754;6.978;2022-08-19T10:55:11;35.40;52.90
39525;DHT22;25203;50.754;6.978;2022-08-19T10:57:31;34.60;53.90
39525;DHT22;25203;50.754;6.978;2022-08-19T10:59:32;33.90;54.00
39525;DHT22;25203;50.754;6.978;2022-08-19T11:01:34;33.40;54.80
39525;DHT22;25203;50.754;6.978;2022-08-19T11:03:35;32.90;55.20
39525;DHT22;25203;50.754;6.978;2022-08-19T11:05:36;32.20;56.00
39525;DHT22;25203;50.754;6.978;2022-08-19T11:07:39;31.80;56.80
39525;DHT22;25203;50.754;6.978;2022-08-19T11:09:41;31.10;57.10
39525;DHT22;25203;50.754;6.978;2022-08-19T11:11:43;30.60;58.20
39525;DHT22;25203;50.754;6.978;2022-08-19T11:13:44;31.10;57.80
39525;DHT22;25203;50.754;6.978;2022-08-19T11:15:46;31.50;57.70
39525;DHT22;25203;50.754;6.978;2022-08-19T11:17:47;31.60;57.80
39525;DHT22;25203;50.754;6.978;2022-08-19T11:19:48;30.90;58.10
39525;DHT22;25203;50.754;6.978;2022-08-19T11:21:50;31.10;59.10
39525;DHT22;25203;50.754;6.978;2022-08-19T11:23:54;32.10;58.10
39525;DHT22;25203;50.754;6.978;2022-08-19T11:25:55;33.00;56.70
39525;DHT22;25203;50.754;6.978;2022-08-19T11:27:57;34.10;56.10
39525;DHT22;25203;50.754;6.978;2022-08-19T11:29:57;34.50;54.10
39525;DHT22;25203;50.754;6.978;2022-08-19T11:31:58;34.00;53.70
39525;DHT22;25203;50.754;6.978;2022-08-19T11:34:02;33.20;54.60
39525;DHT22;25203;50.754;6.978;2022-08-19T11:36:03;33.10;55.50
39525;DHT22;25203;50.754;6.978;2022-08-19T11:38:04;32.50;55.60
39525;DHT22;25203;50.754;6.978;2022-08-19T11:40:06;31.60;55.80
39525;DHT22;25203;50.754;6.978;2022-08-19T11:42:06;30.80;56.70
39525;DHT22;25203;50.754;6.978;2022-08-19T11:44:27;30.00;57.90
39525;DHT22;25203;50.754;6.978;2022-08-19T11:46:31;29.80;58.80
39525;DHT22;25203;50.754;6.978;2022-08-19T11:48:31;30.40;58.90
39525;DHT22;25203;50.754;6.978;2022-08-19T11:50:32;31.10;58.60
39525;DHT22;25203;50.754;6.978;2022-08-19T11:52:33;31.90;56.50
39525;DHT22;25203;50.754;6.978;2022-08-19T11:54:33;33.10;55.80
39525;DHT22;25203;50.754;6.978;2022-08-19T11:56:34;33.90;54.50
39525;DHT22;25203;50.754;6.978;2022-08-19T11:58:35;35.10;54.40
39525;DHT22;25203;50.754;6.978;2022-08-19T12:00:37;36.00;52.40
39525;DHT22;25203;50.754;6.978;2022-08-19T12:02:38;36.00;51.50
39525;DHT22;25203;50.754;6.978;2022-08-19T12:04:39;36.60;52.90
39525;DHT22;25203;50.754;6.978;2022-08-19T12:06:40;36.70;51.80
39525;DHT22;25203;50.754;6.978;2022-08-19T12:08:42;36.40;51.90
39525;DHT22;25203;50.754;6.978;2022-08-19T12:10:44;35.60;52.40
39525;DHT22;25203;50.754;6.978;2022-08-19T12:12:45;35.30;53.20
39525;DHT22;25203;50.754;6.978;2022-08-19T12:14:46;34.40;53.40
39525;DHT22;25203;50.754;6.978;2022-08-19T12:16:47;34.20;54.10
39525;DHT22;25203;50.754;6.978;2022-08-19T12:18:48;34.40;54.10
39525;DHT22;25203;50.754;6.978;2022-08-19T12:20:52;34.70;53.40
39525;DHT22;25203;50.754;6.978;2022-08-19T12:22:54;34.90;53.90
39525;DHT22;25203;50.754;6.978;2022-08-19T12:24:55;34.70;52.80
39525;DHT22;25203;50.754;6.978;2022-08-19T12:26:55;34.90;53.50
39525;DHT22;25203;50.754;6.978;2022-08-19T12:28:58;34.90;53.00
39525;DHT22;25203;50.754;6.978;2022-08-19T12:30:59;34.70;53.10
39525;DHT22;25203;50.754;6.978;2022-08-19T12:33:00;34.60;53.40
39525;DHT22;25203;50.754;6.978;2022-08-19T12:35:00;34.70;53.60
39525;DHT22;25203;50.754;6.978;2022-08-19T12:37:03;34.50;53.10
39525;DHT22;25203;50.754;6.978;2022-08-19T12:39:05;34.10;53.50
39525;DHT22;25203;50.754;6.978;2022-08-19T12:41:13;33.50;54.70
39525;DHT22;25203;50.754;6.978;2022-08-19T12:43:14;33.00;54.50
39525;DHT22;25203;50.754;6.978;2022-08-19T12:45:15;32.50;54.70
39525;DHT22;25203;50.754;6.978;2022-08-19T12:47:16;31.70;55.30
39525;DHT22;25203;50.754;6.978;2022-08-19T12:49:17;31.30;56.00
39525;DHT22;25203;50.754;6.978;2022-08-19T12:51:18;30.50;56.10
39525;DHT22;25203;50.754;6.978;2022-08-19T12:53:20;29.80;56.90
39525;DHT22;25203;50.754;6.978;2022-08-19T12:55:20;29.50;57.50
39525;DHT22;25203;50.754;6.978;2022-08-19T12:57:26;29.20;57.50
39525;DHT22;25203;50.754;6.978;2022-08-19T12:59:27;29.10;58.40
39525;DHT22;25203;50.754;6.978;2022-08-19T13:01:27;28.90;58.10
39525;DHT22;25203;50.754;6.978;2022-08-19T13:03:30;28.80;58.30